createdAt,value
2019-03-30T00:00:00.962Z,5.20
2019-03-30T00:02:35.827Z,5.20
2019-03-30T00:05:10.753Z,5.20
2019-03-30T00:07:43.841Z,5.20
2019-03-30T00:10:36.183Z,5.30
2019-03-30T00:13:10.018Z,5.30
2019-03-30T00:15:42.654Z,5.30
2019-03-30T00:18:16.060Z,5.30
2019-03-30T00:20:49.831Z,5.40
2019-03-30T00:23:22.757Z,5.40
2019-03-30T00:25:56.355Z,5.40
2019-03-30T00:28:30.084Z,5.40
2019-03-30T00:31:21.254Z,5.40
2019-03-30T00:33:55.859Z,5.40
2019-03-30T00:36:32.245Z,5.40
2019-03-30T00:39:06.206Z,5.50
2019-03-30T00:41:40.392Z,5.50
2019-03-30T00:44:14.019Z,5.50
2019-03-30T00:46:47.203Z,5.50
2019-03-30T00:49:21.300Z,5.50
2019-03-30T00:51:54.697Z,5.50
2019-03-30T00:54:28.229Z,5.60
2019-03-30T00:57:00.721Z,5.60
2019-03-30T00:59:35.222Z,5.60
2019-03-30T01:02:07.720Z,5.50
2019-03-30T01:04:40.752Z,5.50
2019-03-30T01:07:13.228Z,5.50
2019-03-30T01:09:47.248Z,5.50
2019-03-30T01:12:19.809Z,5.50
2019-03-30T01:14:53.114Z,5.50
2019-03-30T01:17:26.331Z,5.40
2019-03-30T01:20:03.193Z,5.50
2019-03-30T01:22:33.856Z,5.50
2019-03-30T01:25:08.582Z,5.40
2019-03-30T01:27:41.376Z,5.40
2019-03-30T01:30:22.961Z,5.50
2019-03-30T01:32:49.174Z,5.40
2019-03-30T01:35:21.522Z,5.40
2019-03-30T01:37:54.173Z,5.40
2019-03-30T01:40:27.280Z,5.40
2019-03-30T01:42:59.830Z,5.40
2019-03-30T01:45:33.089Z,5.30
2019-03-30T01:48:05.133Z,5.30
2019-03-30T01:50:38.145Z,5.30
2019-03-30T01:53:12.521Z,5.20
2019-03-30T01:55:48.449Z,5.20
2019-03-30T01:58:21.098Z,5.10
2019-03-30T02:00:53.635Z,5.10
2019-03-30T02:03:25.702Z,5.10
2019-03-30T02:05:58.924Z,5.20
2019-03-30T02:08:33.230Z,5.10
2019-03-30T02:11:05.893Z,5.10
2019-03-30T02:13:37.931Z,5.10
2019-03-30T02:16:10.028Z,5.10
2019-03-30T02:18:42.491Z,5.10
2019-03-30T02:21:15.164Z,5.10
2019-03-30T02:23:47.201Z,5.20
2019-03-30T02:26:19.813Z,5.10
2019-03-30T02:28:52.860Z,5.10
2019-03-30T02:31:26.408Z,5.20
2019-03-30T02:33:58.433Z,5.30
2019-03-30T02:36:31.473Z,5.30
2019-03-30T02:39:04.456Z,5.20
2019-03-30T02:41:37.555Z,5.10
2019-03-30T02:44:10.313Z,5.00
2019-03-30T02:46:43.720Z,4.90
2019-03-30T02:49:16.177Z,4.80
2019-03-30T02:51:49.280Z,4.70
2019-03-30T02:54:22.555Z,4.70
2019-03-30T02:56:55.156Z,4.70
2019-03-30T02:59:27.210Z,4.60
2019-03-30T03:01:59.803Z,4.80
2019-03-30T03:04:32.440Z,4.90
2019-03-30T03:07:04.712Z,5.00
2019-03-30T03:09:38.483Z,4.80
2019-03-30T03:12:10.589Z,4.80
2019-03-30T03:14:43.088Z,5.10
2019-03-30T03:17:15.973Z,5.20
2019-03-30T03:19:48.516Z,5.30
2019-03-30T03:22:21.196Z,5.20
2019-03-30T03:24:53.226Z,5.20
2019-03-30T03:27:25.732Z,5.20
2019-03-30T03:29:59.455Z,5.30
2019-03-30T03:32:32.261Z,5.20
2019-03-30T03:35:05.097Z,5.10
2019-03-30T03:37:45.289Z,4.90
2019-03-30T03:40:14.091Z,4.90
2019-03-30T03:42:46.806Z,4.90
2019-03-30T03:45:18.857Z,5.00
2019-03-30T03:47:52.334Z,4.90
2019-03-30T03:50:57.061Z,4.80
2019-03-30T03:53:30.665Z,4.80
2019-03-30T03:56:05.380Z,4.80
2019-03-30T03:58:40.894Z,4.80
2019-03-30T04:01:13.344Z,4.80
2019-03-30T04:03:47.650Z,4.80
2019-03-30T04:06:20.885Z,4.80
2019-03-30T04:08:55.546Z,4.90
2019-03-30T04:11:31.930Z,4.90
2019-03-30T04:14:06.793Z,4.90
2019-03-30T04:16:38.958Z,4.90
2019-03-30T04:19:12.003Z,4.90
2019-03-30T04:21:45.053Z,5.00
2019-03-30T04:24:19.270Z,5.10
2019-03-30T04:26:51.758Z,5.20
2019-03-30T04:29:24.379Z,5.40
2019-03-30T04:31:57.693Z,5.50
2019-03-30T04:34:30.743Z,5.60
2019-03-30T04:37:03.233Z,5.80
2019-03-30T04:39:37.268Z,6.00
2019-03-30T04:42:10.625Z,6.20
2019-03-30T04:44:44.810Z,6.50
2019-03-30T04:47:17.432Z,6.90
2019-03-30T04:49:50.730Z,7.30
2019-03-30T04:52:24.742Z,7.60
2019-03-30T04:54:57.664Z,7.60
2019-03-30T04:57:32.536Z,7.80
2019-03-30T05:00:05.763Z,8.00
2019-03-30T05:02:39.464Z,8.10
2019-03-30T05:05:12.919Z,7.70
2019-03-30T05:07:45.410Z,7.60
2019-03-30T05:10:19.464Z,7.80
2019-03-30T05:12:53.893Z,8.00
2019-03-30T05:15:28.432Z,8.50
2019-03-30T05:18:02.375Z,8.90
2019-03-30T05:20:36.742Z,9.20
2019-03-30T05:23:09.980Z,9.40
2019-03-30T05:25:42.516Z,9.40
2019-03-30T05:28:16.820Z,9.50
2019-03-30T05:30:51.980Z,9.90
2019-03-30T05:33:26.684Z,10.10
2019-03-30T05:36:00.288Z,10.30
2019-03-30T05:38:34.152Z,10.60
2019-03-30T05:41:07.272Z,10.60
2019-03-30T05:43:39.896Z,10.80
2019-03-30T05:46:12.841Z,11.10
2019-03-30T05:48:46.954Z,11.00
2019-03-30T05:51:22.030Z,10.90
2019-03-30T05:53:56.275Z,11.10
2019-03-30T05:56:30.136Z,11.20
2019-03-30T05:59:05.247Z,11.00
2019-03-30T06:01:40.973Z,11.00
2019-03-30T06:04:15.270Z,11.00
2019-03-30T06:06:48.855Z,11.00
2019-03-30T06:09:23.687Z,11.20
2019-03-30T06:11:58.544Z,11.30
2019-03-30T06:14:31.773Z,11.50
2019-03-30T06:17:06.796Z,11.60
2019-03-30T06:19:40.156Z,11.80
2019-03-30T06:22:14.136Z,12.00
2019-03-30T06:24:48.352Z,12.00
2019-03-30T06:27:22.613Z,12.10
2019-03-30T06:30:17.637Z,11.90
2019-03-30T06:33:00.688Z,12.00
2019-03-30T06:35:33.672Z,11.80
2019-03-30T06:38:07.043Z,11.70
2019-03-30T06:40:40.676Z,12.20
2019-03-30T06:43:14.321Z,12.50
2019-03-30T06:45:47.482Z,12.60
2019-03-30T06:48:21.860Z,12.80
2019-03-30T06:50:55.363Z,12.40
2019-03-30T06:53:29.127Z,12.20
2019-03-30T06:56:03.867Z,12.90
2019-03-30T06:58:38.752Z,13.10
2019-03-30T07:01:16.086Z,13.20
2019-03-30T07:03:50.257Z,13.50
2019-03-30T07:06:26.754Z,13.30
2019-03-30T07:09:05.293Z,12.90
2019-03-30T07:11:42.996Z,13.40
2019-03-30T07:14:17.945Z,13.30
2019-03-30T07:16:54.249Z,13.60
2019-03-30T07:19:31.639Z,13.50
2019-03-30T07:22:04.106Z,13.70
2019-03-30T07:24:39.051Z,13.60
2019-03-30T07:27:14.279Z,13.80
2019-03-30T07:29:48.004Z,13.90
2019-03-30T07:32:21.323Z,14.20
2019-03-30T07:34:55.364Z,14.20
2019-03-30T07:37:29.028Z,13.70
2019-03-30T07:40:03.693Z,13.40
2019-03-30T07:42:36.759Z,13.80
2019-03-30T07:45:11.747Z,13.80
2019-03-30T07:47:46.698Z,14.40
2019-03-30T07:50:20.574Z,14.50
2019-03-30T07:52:53.408Z,14.80
2019-03-30T07:55:27.008Z,14.80
2019-03-30T07:58:00.898Z,14.70
2019-03-30T08:00:35.200Z,14.40
2019-03-30T08:03:10.661Z,15.10
2019-03-30T08:05:48.355Z,15.20
2019-03-30T08:08:25.764Z,15.50
2019-03-30T08:11:02.371Z,15.70
2019-03-30T08:13:36.809Z,15.60
2019-03-30T08:16:10.730Z,15.50
2019-03-30T08:18:44.277Z,15.80
2019-03-30T08:21:18.609Z,16.30
2019-03-30T08:23:52.088Z,15.90
2019-03-30T08:26:26.204Z,15.80
2019-03-30T08:29:00.375Z,15.80
2019-03-30T08:31:36.576Z,16.20
2019-03-30T08:34:11.954Z,16.20
2019-03-30T08:36:48.543Z,15.70
2019-03-30T08:39:23.920Z,15.70
2019-03-30T08:42:00.005Z,15.30
2019-03-30T08:44:35.388Z,15.50
2019-03-30T08:47:08.452Z,15.50
2019-03-30T08:49:42.285Z,14.60
2019-03-30T08:52:17.308Z,15.30
2019-03-30T08:54:50.416Z,15.70
2019-03-30T08:57:24.574Z,15.80
2019-03-30T08:59:58.352Z,15.70
2019-03-30T09:02:34.983Z,15.80
2019-03-30T09:05:09.216Z,15.50
2019-03-30T09:07:43.590Z,15.80
2019-03-30T09:10:16.506Z,15.60
2019-03-30T09:12:52.361Z,15.90
2019-03-30T09:15:27.232Z,15.70
2019-03-30T09:18:00.836Z,16.00
2019-03-30T09:20:33.338Z,16.40
2019-03-30T09:23:08.620Z,16.30
2019-03-30T09:25:43.173Z,16.00
2019-03-30T09:28:16.770Z,15.80
2019-03-30T09:30:52.264Z,15.80
2019-03-30T09:33:26.879Z,15.50
2019-03-30T09:36:00.983Z,15.60
2019-03-30T09:38:35.393Z,15.60
2019-03-30T09:41:08.135Z,15.80
2019-03-30T09:43:44.326Z,15.90
2019-03-30T09:46:18.815Z,15.70
2019-03-30T09:49:01.930Z,16.10
2019-03-30T09:51:37.283Z,16.10
2019-03-30T09:54:23.177Z,15.90
2019-03-30T09:56:47.550Z,16.00
2019-03-30T09:59:20.400Z,15.70
2019-03-30T10:01:54.435Z,15.70
2019-03-30T10:04:29.669Z,15.50
2019-03-30T10:07:03.492Z,15.50
2019-03-30T10:09:36.865Z,15.70
2019-03-30T10:12:12.394Z,16.00
2019-03-30T10:14:48.389Z,16.10
2019-03-30T10:17:23.944Z,16.00
2019-03-30T10:20:04.345Z,16.40
2019-03-30T10:22:36.805Z,16.40
2019-03-30T10:25:09.795Z,16.40
2019-03-30T10:27:44.609Z,16.00
2019-03-30T10:30:18.336Z,16.00
2019-03-30T10:32:52.273Z,16.10
2019-03-30T10:35:25.352Z,16.50
2019-03-30T10:37:59.251Z,16.30
2019-03-30T10:40:35.505Z,16.20
2019-03-30T10:43:08.473Z,16.10
2019-03-30T10:45:42.368Z,16.10
2019-03-30T10:48:17.860Z,16.00
2019-03-30T10:50:51.608Z,16.40
2019-03-30T10:53:27.680Z,16.50
2019-03-30T10:56:01.949Z,16.70
2019-03-30T10:58:36.800Z,16.90
2019-03-30T11:01:10.919Z,16.50
2019-03-30T11:03:45.184Z,16.50
2019-03-30T11:06:18.853Z,16.70
2019-03-30T11:08:53.076Z,16.90
2019-03-30T11:11:27.039Z,16.70
2019-03-30T11:13:59.864Z,17.40
2019-03-30T11:16:35.640Z,17.00
2019-03-30T11:19:12.305Z,16.90
2019-03-30T11:21:49.354Z,17.10
2019-03-30T11:24:26.613Z,17.10
2019-03-30T11:27:00.487Z,16.70
2019-03-30T11:29:38.048Z,17.50
2019-03-30T11:32:14.121Z,17.50
2019-03-30T11:34:48.225Z,17.60
2019-03-30T11:37:21.745Z,17.10
2019-03-30T11:39:55.789Z,16.80
2019-03-30T11:42:29.788Z,17.40
2019-03-30T11:45:10.822Z,17.10
2019-03-30T11:47:44.284Z,17.60
2019-03-30T11:50:20.093Z,17.80
2019-03-30T11:52:54.726Z,16.70
2019-03-30T11:55:29.298Z,16.40
2019-03-30T11:58:03.468Z,16.30
2019-03-30T12:00:37.471Z,16.40
2019-03-30T12:03:11.645Z,16.10
2019-03-30T12:05:47.090Z,15.80
2019-03-30T12:08:21.515Z,16.40
2019-03-30T12:10:58.311Z,15.90
2019-03-30T12:13:33.604Z,15.70
2019-03-30T12:16:07.931Z,15.90
2019-03-30T12:18:41.727Z,16.00
2019-03-30T12:21:16.710Z,15.50
2019-03-30T12:23:53.492Z,15.90
2019-03-30T12:26:27.138Z,16.10
2019-03-30T12:29:03.266Z,15.90
2019-03-30T12:31:40.156Z,15.90
2019-03-30T12:34:13.832Z,16.10
2019-03-30T12:36:47.599Z,16.20
2019-03-30T12:39:22.208Z,15.80
2019-03-30T12:41:56.327Z,15.20
2019-03-30T12:44:34.925Z,15.40
2019-03-30T12:47:10.520Z,15.10
2019-03-30T12:49:55.345Z,15.30
2019-03-30T12:52:30.473Z,15.00
2019-03-30T12:55:06.452Z,15.50
2019-03-30T12:57:53.598Z,15.40
2019-03-30T13:00:28.868Z,15.10
2019-03-30T13:03:05.829Z,15.00
2019-03-30T13:05:42.849Z,14.90
2019-03-30T13:08:17.548Z,15.20
2019-03-30T13:10:57.836Z,14.80
2019-03-30T13:13:45.538Z,14.70
2019-03-30T13:16:19.713Z,14.60
2019-03-30T13:19:00.577Z,14.70
2019-03-30T13:21:35.620Z,14.80
2019-03-30T13:24:10.618Z,14.40
2019-03-30T13:27:13.434Z,14.30
2019-03-30T13:30:00.407Z,14.60
2019-03-30T13:32:39.265Z,14.40
2019-03-30T13:35:17.859Z,14.10
2019-03-30T13:37:51.704Z,14.30
2019-03-30T13:40:27.159Z,14.40
2019-03-30T13:43:02.980Z,13.90
2019-03-30T13:45:38.522Z,14.10
2019-03-30T13:48:12.295Z,14.00
2019-03-30T13:50:47.712Z,14.00
2019-03-30T13:53:24.205Z,14.00
2019-03-30T13:56:01.473Z,14.00
2019-03-30T13:58:36.686Z,13.60
2019-03-30T14:01:13.711Z,13.40
2019-03-30T14:03:49.391Z,13.40
2019-03-30T14:06:27.950Z,13.50
2019-03-30T14:09:06.693Z,13.30
2019-03-30T14:11:44.877Z,13.10
2019-03-30T14:14:21.706Z,13.10
2019-03-30T14:16:56.487Z,13.20
2019-03-30T14:19:41.060Z,13.20
2019-03-30T14:22:17.401Z,13.00
2019-03-30T14:24:51.820Z,12.80
2019-03-30T14:27:26.979Z,12.80
2019-03-30T14:30:02.208Z,12.70
2019-03-30T14:32:35.887Z,12.70
2019-03-30T14:35:10.475Z,12.60
2019-03-30T14:37:46.750Z,12.60
2019-03-30T14:40:20.806Z,12.60
2019-03-30T14:42:58.759Z,12.40
2019-03-30T14:45:33.676Z,12.40
2019-03-30T14:48:09.821Z,12.60
2019-03-30T14:50:44.967Z,12.40
2019-03-30T14:53:21.284Z,12.10
2019-03-30T14:55:54.896Z,12.10
2019-03-30T14:58:29.533Z,11.90
2019-03-30T15:01:03.355Z,11.70
2019-03-30T15:03:39.236Z,11.80
2019-03-30T15:06:14.350Z,11.80
2019-03-30T15:08:48.603Z,11.60
2019-03-30T15:11:21.960Z,11.40
2019-03-30T15:13:55.667Z,11.20
2019-03-30T15:16:28.270Z,11.20
2019-03-30T15:19:01.722Z,11.30
2019-03-30T15:21:34.717Z,11.20
2019-03-30T15:24:08.036Z,11.10
2019-03-30T15:26:41.068Z,11.20
2019-03-30T15:29:16.384Z,11.10
2019-03-30T15:31:50.820Z,11.10
2019-03-30T15:34:25.120Z,10.90
2019-03-30T15:36:59.799Z,10.70
2019-03-30T15:39:33.893Z,10.60
2019-03-30T15:42:09.121Z,10.50
2019-03-30T15:44:45.034Z,10.40
2019-03-30T15:47:19.428Z,10.50
2019-03-30T15:49:54.725Z,10.70
2019-03-30T15:52:29.786Z,10.40
2019-03-30T15:55:03.365Z,10.20
2019-03-30T15:57:38.720Z,10.10
2019-03-30T16:00:15.688Z,10.50
2019-03-30T16:02:49.568Z,10.50
2019-03-30T16:05:24.487Z,10.10
2019-03-30T16:07:59.751Z,10.00
2019-03-30T16:10:34.991Z,10.00
2019-03-30T16:13:08.524Z,10.20
2019-03-30T16:15:44.573Z,10.10
2019-03-30T16:18:20.261Z,10.00
2019-03-30T16:20:52.800Z,9.60
2019-03-30T16:23:27.867Z,9.60
2019-03-30T16:26:01.475Z,9.80
2019-03-30T16:28:35.115Z,9.80
2019-03-30T16:31:08.077Z,9.80
2019-03-30T16:33:41.497Z,9.70
2019-03-30T16:36:15.749Z,9.60
2019-03-30T16:38:49.227Z,9.50
2019-03-30T16:41:21.928Z,9.60
2019-03-30T16:43:58.218Z,9.60
2019-03-30T16:46:32.461Z,9.60
2019-03-30T16:49:05.799Z,9.50
2019-03-30T16:51:40.149Z,9.40
2019-03-30T16:54:13.262Z,9.30
2019-03-30T16:56:56.444Z,9.30
2019-03-30T16:59:30.873Z,9.20
2019-03-30T17:02:04.768Z,9.10
2019-03-30T17:04:39.791Z,9.00
2019-03-30T17:07:15.483Z,8.90
2019-03-30T17:09:50.052Z,8.80
2019-03-30T17:12:24.169Z,8.80
2019-03-30T17:14:59.412Z,8.80
2019-03-30T17:17:37.138Z,8.70
2019-03-30T17:20:13.799Z,8.70
2019-03-30T17:22:46.709Z,8.70
2019-03-30T17:25:21.441Z,8.60
2019-03-30T17:27:58.618Z,8.60
2019-03-30T17:30:30.401Z,8.50
2019-03-30T17:33:03.369Z,8.60
2019-03-30T17:35:36.547Z,8.60
2019-03-30T17:38:09.775Z,8.60
2019-03-30T17:40:42.803Z,8.60
2019-03-30T17:43:17.100Z,8.50
2019-03-30T17:45:49.208Z,8.50
2019-03-30T17:48:23.516Z,8.40
2019-03-30T17:50:58.622Z,8.40
2019-03-30T17:53:33.376Z,8.40
2019-03-30T17:56:07.215Z,8.30
2019-03-30T17:58:40.201Z,8.30
2019-03-30T18:01:15.950Z,8.20
2019-03-30T18:03:50.377Z,8.20
2019-03-30T18:06:24.548Z,8.10
2019-03-30T18:08:58.296Z,8.10
2019-03-30T18:11:32.992Z,8.10
2019-03-30T18:14:08.046Z,8.10
2019-03-30T18:16:41.174Z,8.00
2019-03-30T18:19:14.513Z,8.00
2019-03-30T18:21:50.660Z,7.90
2019-03-30T18:24:24.019Z,7.90
2019-03-30T18:26:59.313Z,7.90
2019-03-30T18:29:32.753Z,7.80
2019-03-30T18:32:08.073Z,7.80
2019-03-30T18:34:45.096Z,7.70
2019-03-30T18:37:20.760Z,7.70
2019-03-30T18:39:57.137Z,7.70
2019-03-30T18:42:32.246Z,7.70
2019-03-30T18:45:07.704Z,7.60
2019-03-30T18:47:41.639Z,7.60
2019-03-30T18:50:15.455Z,7.60
2019-03-30T18:52:48.716Z,7.50
2019-03-30T18:55:25.749Z,7.40
2019-03-30T18:58:01.348Z,7.40
2019-03-30T19:00:35.276Z,7.40
2019-03-30T19:03:08.752Z,7.40
2019-03-30T19:05:41.255Z,7.40
2019-03-30T19:08:15.876Z,7.40
2019-03-30T19:10:49.440Z,7.40
2019-03-30T19:13:23.164Z,7.30
2019-03-30T19:15:57.353Z,7.30
2019-03-30T19:18:32.293Z,7.30
2019-03-30T19:21:05.644Z,7.30
2019-03-30T19:23:40.638Z,7.30
2019-03-30T19:26:15.926Z,7.20
2019-03-30T19:28:56.447Z,7.20
2019-03-30T19:31:26.455Z,7.20
2019-03-30T19:34:03.971Z,7.20
2019-03-30T19:36:39.762Z,7.20
2019-03-30T19:39:13.395Z,7.10
2019-03-30T19:41:48.365Z,7.10
2019-03-30T19:44:23.805Z,7.00
2019-03-30T19:46:59.431Z,7.00
2019-03-30T19:49:36.001Z,6.90
2019-03-30T19:52:18.890Z,6.90
2019-03-30T19:54:52.927Z,6.90
2019-03-30T19:57:27.978Z,6.80
2019-03-30T20:00:02.391Z,6.90
2019-03-30T20:02:37.505Z,6.90
2019-03-30T20:05:12.297Z,6.90
2019-03-30T20:07:45.583Z,6.80
2019-03-30T20:10:21.802Z,6.90
2019-03-30T20:12:57.157Z,6.90
2019-03-30T20:15:31.756Z,6.90
2019-03-30T20:18:05.564Z,6.80
2019-03-30T20:20:39.888Z,6.80
2019-03-30T20:23:15.250Z,6.80
2019-03-30T20:25:50.188Z,6.80
2019-03-30T20:28:23.869Z,6.80
2019-03-30T20:31:14.908Z,6.80
2019-03-30T20:33:48.648Z,6.80
2019-03-30T20:36:22.391Z,6.80
2019-03-30T20:38:56.873Z,6.70
2019-03-30T20:41:30.389Z,6.70
2019-03-30T20:44:03.683Z,6.70
2019-03-30T20:46:38.890Z,6.70
2019-03-30T20:49:14.006Z,6.70
2019-03-30T20:51:46.558Z,6.70
2019-03-30T20:54:39.004Z,6.70
2019-03-30T20:57:12.821Z,6.70
2019-03-30T20:59:46.624Z,6.80
2019-03-30T21:02:19.593Z,6.70
2019-03-30T21:05:12.288Z,6.70
2019-03-30T21:07:47.621Z,6.80
2019-03-30T21:10:22.336Z,6.80
2019-03-30T21:12:57.385Z,6.80
2019-03-30T21:15:31.939Z,6.80
2019-03-30T21:18:05.843Z,6.80
2019-03-30T21:20:39.915Z,6.80
2019-03-30T21:23:16.808Z,6.70
2019-03-30T21:25:52.063Z,6.60
2019-03-30T21:28:27.622Z,6.50
2019-03-30T21:31:02.616Z,6.30
2019-03-30T21:33:36.370Z,6.30
2019-03-30T21:36:10.024Z,6.30
2019-03-30T21:38:42.152Z,6.20
2019-03-30T21:41:16.131Z,6.30
2019-03-30T21:43:52.735Z,6.40
2019-03-30T21:46:26.717Z,6.20
2019-03-30T21:49:00.999Z,6.10
2019-03-30T21:51:35.316Z,6.10
2019-03-30T21:54:09.531Z,6.30
2019-03-30T21:56:42.892Z,6.40
2019-03-30T21:59:17.060Z,6.40
2019-03-30T22:01:53.447Z,6.30
2019-03-30T22:04:27.932Z,6.20
2019-03-30T22:07:01.422Z,6.10
2019-03-30T22:09:35.951Z,6.00
2019-03-30T22:12:09.948Z,5.90
2019-03-30T22:14:53.176Z,5.80
2019-03-30T22:17:26.997Z,5.70
2019-03-30T22:20:00.451Z,5.70
2019-03-30T22:22:34.447Z,5.60
2019-03-30T22:25:07.748Z,5.70
2019-03-30T22:27:41.918Z,5.70
2019-03-30T22:30:24.565Z,5.80
2019-03-30T22:32:50.705Z,6.00
2019-03-30T22:35:23.351Z,6.20
2019-03-30T22:37:58.745Z,6.10
2019-03-30T22:40:32.906Z,6.10
2019-03-30T22:43:06.861Z,6.00
2019-03-30T22:45:40.919Z,6.00
2019-03-30T22:48:17.192Z,5.80
2019-03-30T22:50:52.619Z,5.70
2019-03-30T22:53:25.561Z,5.60
2019-03-30T22:55:59.624Z,5.60
2019-03-30T22:58:33.126Z,5.50
2019-03-30T23:01:09.223Z,5.40
2019-03-30T23:03:46.292Z,5.30
2019-03-30T23:06:20.654Z,5.20
2019-03-30T23:08:53.785Z,5.30
2019-03-30T23:11:27.895Z,5.30
2019-03-30T23:14:01.764Z,5.20
2019-03-30T23:16:36.011Z,5.30
2019-03-30T23:19:09.688Z,5.30
2019-03-30T23:21:43.664Z,5.30
2019-03-30T23:24:16.651Z,5.40
2019-03-30T23:26:50.712Z,5.60
2019-03-30T23:29:25.062Z,5.80
2019-03-30T23:32:00.426Z,5.70
2019-03-30T23:34:35.355Z,5.70
2019-03-30T23:37:26.317Z,5.90
2019-03-30T23:39:59.906Z,6.00
2019-03-30T23:42:34.021Z,6.10
2019-03-30T23:45:09.704Z,6.10
2019-03-30T23:47:42.951Z,6.20
2019-03-30T23:50:26.437Z,5.90
2019-03-30T23:52:59.340Z,6.10
2019-03-30T23:55:31.952Z,6.30
2019-03-30T23:58:05.619Z,6.10
